Sacramento, California
Traffic Map
Current Weather Conditions
Sacramento, California
Clear
Clear
69°
Feels Like: 69°
Wind Chill: 69° Ceiling: Unl
Heat Index: 69° Visibility: 10mi
Dew Point: 58° Wind: 6mph
Humidity: 68% Direction: 210° (SSW)
Pressure: 30.04in Gusts: 0mph
Raw Report DataKSAC 221653Z 21005KT 10SM CLR 21/14 A3004 RMK AO2 SLP171 T02060144
Traffic Incident Summary
Active as of:
Severity:
Category:
InformationThere was an issue retrieving the traffic information for this location. Please try a different location or try again shortly.
Advertisements
Track Severe Weather on mobile